Time;durP1;ratioP1;P1;durP2;ratioP2;P2;SDS_P1;SDS_P2;PMS_P1;PMS_P2;Temp;Humidity;BMP_temperature;BMP_pressure;BME280_temperature;BME280_humidity;BME280_pressure;Samples;Min_cycle;Max_cycle;Signal;HPM_P1;HPM_P2
2023/05/30 00:00:33;;;;;;;;;;;11.80;99.90;;;;;;5009603;28;19946;-77
2023/05/30 00:03:00;;;;;;;;;;;11.70;99.90;;;;;;5021006;28;19925;-77
2023/05/30 00:05:27;;;;;;;;;;;;;;;;;;5022793;28;19937;-77
2023/05/30 00:07:54;;;;;;;;;;;11.60;99.90;;;;;;4987178;28;20397;-76
2023/05/30 00:10:22;;;;;;;;;;;11.60;99.90;;;;;;4991915;28;19926;-77
2023/05/30 00:12:49;;;;;;;;;;;11.60;99.90;;;;;;4991414;28;19925;-77
2023/05/30 00:15:18;;;;;;;;;;;11.50;99.90;;;;;;5010371;28;19926;-77
2023/05/30 00:17:47;;;;;;;;;;;11.50;99.90;;;;;;5017847;28;20420;-77
2023/05/30 00:20:14;;;;;;;;;;;11.50;99.90;;;;;;4988720;28;19937;-76
2023/05/30 00:22:42;;;;;;;;;;;11.50;99.90;;;;;;4991366;28;19933;-76
2023/05/30 00:25:09;;;;;;;;;;;11.40;99.90;;;;;;4991687;28;20017;-75
2023/05/30 00:27:36;;;;;;;;;;;11.20;99.90;;;;;;5012436;28;19926;-77
2023/05/30 00:30:03;;;;;;;;;;;11.10;99.90;;;;;;4991610;28;19933;-76
2023/05/30 00:32:34;;;;;;;;;;;11.10;99.90;;;;;;5017695;28;19938;-76
2023/05/30 00:35:02;;;;;;;;;;;11.00;99.90;;;;;;4988497;28;19936;-76
2023/05/30 00:37:29;;;;;;;;;;;10.90;99.90;;;;;;5016383;28;19930;-76
2023/05/30 00:39:56;;;;;;;;;;;10.90;99.90;;;;;;5015819;28;19976;-77
2023/05/30 00:42:22;;;;;;;;;;;10.90;99.90;;;;;;5011594;28;19977;-77
2023/05/30 00:44:49;;;;;;;;;;;10.90;99.90;;;;;;4985914;28;19925;-76
2023/05/30 00:47:16;;;;;;;;;;;10.90;99.90;;;;;;4991184;28;20320;-76
2023/05/30 00:49:44;;;;;;;;;;;10.90;99.90;;;;;;4991351;28;20437;-78
2023/05/30 00:52:13;;;;;;;;;;;10.90;99.90;;;;;;4991079;28;20020;-76
2023/05/30 00:54:42;;;;;;;;;;;10.80;99.90;;;;;;5005766;28;19926;-77
2023/05/30 00:57:09;;;;;;;;;;;10.80;99.90;;;;;;5012084;28;19976;-76
2023/05/30 00:59:36;;;;;;;;;;;10.70;99.90;;;;;;5011042;28;19926;-77
2023/05/30 01:02:07;;;;;;;;;;;10.70;99.90;;;;;;5011396;28;19930;-76
2023/05/30 01:04:34;;;;;;;;;;;10.70;99.90;;;;;;5013639;28;20016;-77
2023/05/30 01:07:00;;;;;;;;;;;10.80;99.90;;;;;;4991156;28;19930;-76
2023/05/30 01:09:29;;;;;;;;;;;10.70;99.90;;;;;;4989274;28;19957;-77
2023/05/30 01:12:01;;;;;;;;;;;10.70;99.90;;;;;;4981583;28;19932;-76
2023/05/30 01:14:32;;;;;;;;;;;10.70;99.90;;;;;;5009365;28;20431;-77
2023/05/30 01:17:03;;;;;;;;;;;10.60;99.90;;;;;;5021705;28;20024;-77
2023/05/30 01:19:48;;;;;;;;;;;10.50;99.90;;;;;;5012816;28;19932;-77
2023/05/30 01:22:20;;;;;;;;;;;10.40;99.90;;;;;;4987926;28;20352;-78
2023/05/30 01:24:55;;;;;;;;;;;10.50;99.90;;;;;;4986034;28;19932;-78
2023/05/30 01:27:26;;;;;;;;;;;10.40;99.90;;;;;;4990538;28;19932;-77
2023/05/30 01:29:55;;;;;;;;;;;10.50;99.90;;;;;;5011595;28;20393;-77
2023/05/30 01:32:23;;;;;;;;;;;10.40;99.90;;;;;;4991138;28;20381;-77
2023/05/30 01:34:49;;;;;;;;;;;10.40;99.90;;;;;;4984805;28;19934;-77
2023/05/30 01:37:16;;;;;;;;;;;10.40;99.90;;;;;;5001713;28;20021;-77
2023/05/30 01:39:43;;;;;;;;;;;10.30;99.90;;;;;;4990548;28;19937;-77
2023/05/30 01:42:11;;;;;;;;;;;;;;;;;;4992396;28;19934;-78
2023/05/30 01:44:38;;;;;;;;;;;;;;;;;;5004555;28;19926;-78
2023/05/30 01:47:05;;;;;;;;;;;;;;;;;;5011690;28;19965;-77
2023/05/30 01:49:32;;;;;;;;;;;;;;;;;;4990083;28;19961;-78
2023/05/30 01:52:00;;;;;;;;;;;;;;;;;;4990588;28;19976;-78
2023/05/30 01:54:27;;;;;;;;;;;;;;;;;;4990226;28;19953;-78
2023/05/30 01:56:54;;;;;;;;;;;;;;;;;;5011359;28;19933;-77
2023/05/30 01:59:21;;;;;;;;;;;;;;;;;;5017331;28;19933;-78
2023/05/30 02:01:48;;;;;;;;;;;;;;;;;;4990276;28;19973;-77
2023/05/30 02:04:15;;;;;;;;;;;;;;;;;;4987238;28;20041;-78
2023/05/30 02:06:42;;;;;;;;;;;;;;;;;;4990404;28;19926;-77
2023/05/30 02:09:09;;;;;;;;;;;;;;;;;;5011985;28;19977;-77
2023/05/30 02:11:37;;;;;;;;;;;;;;;;;;5011833;28;19933;-76
2023/05/30 02:14:04;;;;;;;;;;;;;;;;;;4990104;28;19977;-78
2023/05/30 02:16:31;;;;;;;;;;;;;;;;;;4990331;28;19926;-76
2023/05/30 02:18:58;;;;;;;;;;;;;;;;;;4985002;28;20409;-77
2023/05/30 02:21:26;;;;;;;;;;;;;;;;;;4990046;28;20335;-77
2023/05/30 02:23:53;;;;;;;;;;;;;;;;;;5012213;28;19933;-78
2023/05/30 02:26:20;;;;;;;;;;;;;;;;;;5010945;28;19933;-76
2023/05/30 02:28:47;;;;;;;;;;;;;;;;;;5016493;28;19933;-78
2023/05/30 02:31:14;;;;;;;;;;;;;;;;;;5008486;28;20017;-77
2023/05/30 02:33:41;;;;;;;;;;;;;;;;;;4986069;28;19925;-77
2023/05/30 02:36:09;;;;;;;;;;;;;;;;;;5008811;28;19926;-77
2023/05/30 02:38:36;;;;;;;;;;;;;;;;;;5006404;28;19925;-77
2023/05/30 02:41:03;;;;;;;;;;;;;;;;;;4987709;28;20004;-78
2023/05/30 02:43:30;;;;;;;;;;;;;;;;;;4989112;28;19926;-76
2023/05/30 02:45:57;;;;;;;;;;;;;;;;;;5012078;28;19925;-77
2023/05/30 02:48:25;;;;;;;;;;;;;;;;;;5015685;28;20025;-77
2023/05/30 02:50:56;;;;;;;;;;;;;;;;;;4991314;28;20028;-78
2023/05/30 02:53:24;;;;;;;;;;;;;;;;;;5019125;28;20460;-76
2023/05/30 02:55:52;;;;;;;;;;;;;;;;;;5023047;28;19936;-78
2023/05/30 02:58:42;;;;;;;;;;;;;;;;;;4990946;28;19933;-78
2023/05/30 03:01:32;;;;;;;;;;;;;;;;;;4987539;28;20020;-79
2023/05/30 03:04:01;;;;;;;;;;;;;;;;;;4993255;28;19933;-77
2023/05/30 03:06:35;;;;;;;;;;;;;;;;;;4991330;28;19937;-77
2023/05/30 03:09:13;;;;;;;;;;;;;;;;;;4992898;28;19933;-78
2023/05/30 03:11:40;;;;;;;;;;;;;;;;;;5011743;28;19933;-77
2023/05/30 03:14:08;;;;;;;;;;;;;;;;;;5015303;28;19926;-78
2023/05/30 03:16:36;;;;;;;;;;;;;;;;;;5012467;28;20541;-77
2023/05/30 03:19:04;;;;;;;;;;;;;;;;;;5004188;28;19925;-77
2023/05/30 03:21:32;;;;;;;;;;;;;;;;;;5018262;28;19933;-77
2023/05/30 03:23:59;;;;;;;;;;;;;;;;;;4992779;28;19926;-77
2023/05/30 03:26:29;;;;;;;;;;;;;;;;;;4992481;28;19933;-77
2023/05/30 03:28:56;;;;;;;;;;;;;;;;;;5016394;28;20413;-77
2023/05/30 03:31:27;;;;;;;;;;;;;;;;;;4992396;28;19926;-77
2023/05/30 03:33:54;;;;;;;;;;;;;;;;;;4992145;28;20371;-77
2023/05/30 03:36:22;;;;;;;;;;;;;;;;;;4992577;28;19926;-77
2023/05/30 03:38:49;;;;;;;;;;;;;;;;;;4990235;28;19961;-77
2023/05/30 03:41:16;;;;;;;;;;;;;;;;;;5008899;28;19926;-77
2023/05/30 03:43:43;;;;;;;;;;;;;;;;;;4987293;28;19925;-78
2023/05/30 03:46:10;;;;;;;;;;;;;;;;;;4992480;28;19925;-78
2023/05/30 03:48:37;;;;;;;;;;;;;;;;;;4988493;28;20409;-78
2023/05/30 03:51:04;;;;;;;;;;;;;;;;;;5008966;28;19926;-77
2023/05/30 03:53:31;;;;;;;;;;;;;;;;;;5015215;28;20298;-77
2023/05/30 03:55:58;;;;;;;;;;;;;;;;;;5015749;28;19925;-76
2023/05/30 03:58:26;;;;;;;;;;;;;;;;;;5008152;28;19937;-77
2023/05/30 04:00:54;;;;;;;;;;;;;;;;;;5013518;28;19965;-76
2023/05/30 04:03:21;;;;;;;;;;;;;;;;;;5017099;28;20397;-77
2023/05/30 04:05:48;;;;;;;;;;;;;;;;;;4991726;28;19969;-78
2023/05/30 04:08:16;;;;;;;;;;;;;;;;;;4992225;28;19930;-77
2023/05/30 04:10:43;;;;;;;;;;;;;;;;;;5019875;28;19926;-77
2023/05/30 04:13:10;;;;;;;;;;;;;;;;;;4988340;28;19926;-77
2023/05/30 04:15:39;;;;;;;;;;;;;;;;;;5009077;28;20292;-78
2023/05/30 04:18:06;;;;;;;;;;;;;;;;;;5002389;28;20378;-76
2023/05/30 04:20:33;;;;;;;;;;;;;;;;;;5012603;28;20393;-77
2023/05/30 04:23:00;;;;;;;;;;;;;;;;;;5010963;28;19930;-77
2023/05/30 04:25:28;;;;;;;;;;;;;;;;;;4990649;28;19925;-77
2023/05/30 04:27:56;;;;;;;;;;;;;;;;;;4991694;28;19926;-77
2023/05/30 04:30:23;;;;;;;;;;;;;;;;;;4991528;28;19926;-77
2023/05/30 04:32:50;;;;;;;;;;;;;;;;;;5011676;28;19929;-76
2023/05/30 04:35:18;;;;;;;;;;;;;;;;;;4991645;28;19936;-76
2023/05/30 04:37:46;;;;;;;;;;;;;;;;;;4991694;28;19932;-77
2023/05/30 04:40:14;;;;;;;;;;;;;;;;;;4987566;28;19927;-78
2023/05/30 04:42:41;;;;;;;;;;;;;;;;;;4991445;28;20029;-77
2023/05/30 04:45:08;;;;;;;;;;;;;;;;;;4985424;28;19981;-77
2023/05/30 04:47:36;;;;;;;;;;;;;;;;;;5011951;28;20337;-78
2023/05/30 04:50:03;;;;;;;;;;;;;;;;;;5011777;28;20380;-77
2023/05/30 04:52:30;;;;;;;;;;;;;;;;;;4990041;28;19973;-79
2023/05/30 04:54:57;;;;;;;;;;;;;;;;;;4991186;28;20349;-78
2023/05/30 04:57:24;;;;;;;;;;;;;;;;;;4991230;28;20069;-76
2023/05/30 04:59:52;;;;;;;;;;;;;;;;;;5013978;28;19933;-77
2023/05/30 05:02:19;;;;;;;;;;;;;;;;;;5014461;28;19930;-76
2023/05/30 05:04:47;;;;;;;;;;;;;;;;;;5013489;28;20402;-76
2023/05/30 05:07:14;;;;;;;;;;;;;;;;;;5015299;28;19926;-76
2023/05/30 05:09:41;;;;;;;;;;;;;;;;;;5004548;28;19948;-77
2023/05/30 05:12:08;;;;;;;;;;;;;;;;;;5014590;28;20404;-76
2023/05/30 05:14:35;;;;;;;;;;;;;;;;;;5013372;28;19929;-77
2023/05/30 05:17:02;;;;;;;;;;;;;;;;;;5013425;28;19930;-75
2023/05/30 05:19:30;;;;;;;;;;;;;;;;;;5011547;28;20353;-76
2023/05/30 05:21:57;;;;;;;;;;;;;;;;;;5014261;28;19933;-76
2023/05/30 05:24:24;;;;;;;;;;;;;;;;;;5011462;28;19926;-76
2023/05/30 05:26:51;;;;;;;;;;;;;;;;;;4990656;28;19992;-77
2023/05/30 05:29:18;;;;;;;;;;;;;;;;;;5012311;28;19980;-77
2023/05/30 05:31:45;;;;;;;;;;;;;;;;;;5014097;28;19933;-76
2023/05/30 05:34:12;;;;;;;;;;;;;;;;;;4990683;28;19980;-77
2023/05/30 05:36:41;;;;;;;;;;;;;;;;;;4990721;28;19929;-76
2023/05/30 05:39:08;;;;;;;;;;;;;;;;;;4990485;28;19930;-77
2023/05/30 05:41:35;;;;;;;;;;;;;;;;;;5014600;28;19930;-77
2023/05/30 05:44:03;;;;;;;;;;;;;;;;;;5014592;28;19969;-77
2023/05/30 05:46:30;;;;;;;;;;;;;;;;;;5007195;28;19930;-76
2023/05/30 05:48:57;;;;;;;;;;;;;;;;;;5009845;28;19926;-77
2023/05/30 05:51:24;;;;;;;;;;;;;;;;;;5013072;28;19933;-77
2023/05/30 05:53:51;;;;;;;;;;;;;;;;;;5011100;28;19925;-78
2023/05/30 05:56:18;;;;;;;;;;;;;;;;;;5010372;28;19955;-75
2023/05/30 05:58:45;;;;;;;;;;;;;;;;;;4990352;28;20022;-78
2023/05/30 06:01:12;;;;;;;;;;;;;;;;;;5012445;28;19926;-76
2023/05/30 06:03:39;;;;;;;;;;;;;;;;;;4986556;28;19925;-77
2023/05/30 06:06:07;;;;;;;;;;;;;;;;;;4990505;28;19926;-78
2023/05/30 06:08:34;;;;;;;;;;;;;;;;;;5019294;28;19926;-77
2023/05/30 06:11:02;;;;;;;;;;;;;;;;;;4988431;28;19926;-78
2023/05/30 06:13:29;;;;;;;;;;;;;;;;;;4989196;28;19933;-77
2023/05/30 06:15:56;;;;;;;;;;;;;;;;;;5015002;28;19976;-77
2023/05/30 06:18:23;;;;;;;;;;;;;;;;;;5013129;28;19929;-78
2023/05/30 06:20:50;;;;;;;;;;;;;;;;;;4989968;28;19937;-77
2023/05/30 06:23:17;;;;;;;;;;;;;;;;;;5014223;28;20349;-77
2023/05/30 06:25:44;;;;;;;;;;;;;;;;;;5018503;28;19926;-77
2023/05/30 06:28:11;;;;;;;;;;;;;;;;;;5010127;28;20017;-77
2023/05/30 06:30:38;;;;;;;;;;;;;;;;;;5010331;28;20462;-77
2023/05/30 06:33:06;;;;;;;;;;;;;;;;;;5011327;28;19934;-77
2023/05/30 06:35:33;;;;;;;;;;;;;;;;;;5019512;28;19934;-78
2023/05/30 06:38:00;;;;;;;;;;;;;;;;;;5014024;28;20357;-78
2023/05/30 06:40:27;;;;;;;;;;;;;;;;;;5013967;28;19973;-77
2023/05/30 06:42:54;;;;;;;;;;;;;;;;;;5014911;28;19930;-77
2023/05/30 06:45:21;;;;;;;;;;;;;;;;;;5013246;28;19933;-77
2023/05/30 06:47:48;;;;;;;;;;;;;;;;;;5015586;28;19926;-79
2023/05/30 06:50:15;;;;;;;;;;;;;;;;;;5014179;28;19941;-78
2023/05/30 06:52:42;;;;;;;;;;;;;;;;;;5013765;28;19930;-78
2023/05/30 06:55:10;;;;;;;;;;;;;;;;;;4992977;28;19961;-79
2023/05/30 06:57:37;;;;;;;;;;;;;;;;;;4993395;28;19925;-78
2023/05/30 07:00:05;;;;;;;;;;;;;;;;;;5013206;28;20401;-78
2023/05/30 07:02:32;;;;;;;;;;;;;;;;;;5012593;28;20406;-78
2023/05/30 07:04:59;;;;;;;;;;;;;;;;;;4993101;28;19926;-79
2023/05/30 07:07:26;;;;;;;;;;;;;;;;;;4992029;28;20444;-78
2023/05/30 07:09:53;;;;;;;;;;;;;;;;;;4990505;28;19926;-78
2023/05/30 07:12:20;;;;;;;;;;;;;;;;;;5019966;28;19957;-78
2023/05/30 07:14:47;;;;;;;;;;;;;;;;;;4990552;28;20353;-78
2023/05/30 07:17:14;;;;;;;;;;;;;;;;;;5012193;28;20425;-78
2023/05/30 07:19:41;;;;;;;;;;;;;;;;;;4991112;28;20350;-78
2023/05/30 07:22:08;;;;;;;;;;;;;;;;;;5018659;28;19926;-77
2023/05/30 07:24:36;;;;;;;;;;;;;;;;;;5018676;28;19926;-78
2023/05/30 07:27:03;;;;;;;;;;;;;;;;;;4987115;28;19926;-78
2023/05/30 07:29:30;;;;;;;;;;;;;;;;;;5015395;28;19930;-79
2023/05/30 07:31:57;;;;;;;;;;;;;;;;;;5011678;28;19926;-78
2023/05/30 07:34:24;;;;;;;;;;;;;;;;;;5013241;28;19925;-79
2023/05/30 07:36:51;;;;;;;;;;;;;;;;;;4988214;28;19981;-78
2023/05/30 07:39:19;;;;;;;;;;;;;;;;;;5006863;28;19926;-78
2023/05/30 07:41:46;;;;;;;;;;;;;;;;;;4991179;28;20278;-78
2023/05/30 07:44:13;;;;;;;;;;;;;;;;;;4992283;28;20653;-78
2023/05/30 07:46:40;;;;;;;;;;;;;;;;;;4992844;28;19925;-80
2023/05/30 07:49:07;;;;;;;;;;;;;;;;;;5018087;28;19957;-79
2023/05/30 07:51:35;;;;;;;;;;;;;;;;;;5013094;28;19926;-78
2023/05/30 07:54:02;;;;;;;;;;;;;;;;;;4992338;28;19929;-77
2023/05/30 07:56:29;;;;;;;;;;;;;;;;;;4992495;28;19972;-78
2023/05/30 07:58:56;;;;;;;;;;;;;;;;;;4992225;28;19929;-78
2023/05/30 08:01:23;;;;;;;;;;;;;;;;;;5017740;28;19926;-80
2023/05/30 08:03:50;;;;;;;;;;;;;;;;;;4992092;28;19929;-78
2023/05/30 08:06:17;;;;;;;;;;;;;;;;;;5017024;28;19987;-79
2023/05/30 08:08:44;;;;;;;;;;;;;;;;;;4992595;28;20396;-78
2023/05/30 08:11:13;;;;;;;;;;;;;;;;;;4991702;28;19930;-79
2023/05/30 08:13:41;;;;;;;;;;;;;;;;;;4988683;28;19961;-80
2023/05/30 08:16:10;;;;;;;;;;;;;;;;;;4992308;28;19965;-78
2023/05/30 08:18:37;;;;;;;;;;;;;;;;;;5022564;28;19929;-78
2023/05/30 08:21:04;;;;;;;;;;;;;;;;;;5019944;28;19980;-78
2023/05/30 08:23:31;;;;;;;;;;;;;;;;;;4992082;28;19929;-79
2023/05/30 08:25:58;;;;;;;;;;;;;;;;;;4991997;28;19926;-79
2023/05/30 08:28:25;;;;;;;;;;;;;;;;;;4992894;28;19930;-79
2023/05/30 08:30:53;;;;;;;;;;;;;;;;;;4992424;28;19926;-79
2023/05/30 08:33:21;;;;;;;;;;;;;;;;;;5013613;28;19997;-78
2023/05/30 08:35:48;;;;;;;;;;;;;;;;;;4991522;28;19926;-77
2023/05/30 08:38:15;;;;;;;;;;;;;;;;;;4986243;28;19945;-77
2023/05/30 08:43:48;;;;;;;;;;;;;;;;;;4976502;28;20333;-76
2023/05/30 08:46:15;;;;;;;;;;;;;;;;;;4978954;28;20012;-77
2023/05/30 08:48:42;;;;;;;;;;;;;;;;;;4975837;28;20287;-77
2023/05/30 08:51:11;;;;;;;;;;;;;;;;;;4974603;28;19926;-78
2023/05/30 08:53:38;;;;;;;;;;;;;;;;;;4968176;28;19927;-77
2023/05/30 08:56:05;;;;;;;;;;;;;;;;;;4972581;28;19961;-77
2023/05/30 08:58:33;;;;;;;;;;;;;;;;;;4973916;28;19969;-75
2023/05/30 09:01:01;;;;;;;;;;;;;;;;;;4977994;28;19985;-76
2023/05/30 09:03:28;;;;;;;;;;;;;;;;;;4972333;28;20368;-77
2023/05/30 09:05:55;;;;;;;;;;;;;;;;;;4963343;28;19937;-77
2023/05/30 09:08:22;;;;;;;;;;;;;;;;;;4955660;28;20368;-77
2023/05/30 09:10:51;;;;;;;;;;;;;;;;;;4964930;28;19926;-76
2023/05/30 09:13:18;;;;;;;;;;;;;;;;;;4961161;28;20045;-77
2023/05/30 09:15:45;;;;;;;;;;;;;;;;;;4961002;28;19934;-77
2023/05/30 09:18:12;;;;;;;;;;;;;;;;;;4965052;28;19989;-76
2023/05/30 09:20:40;;;;;;;;;;;;;;;;;;4955758;28;20366;-77
2023/05/30 09:23:07;;;;;;;;;;;;;;;;;;4968020;28;19982;-77
2023/05/30 09:25:34;;;;;;;;;;;;;;;;;;4962393;28;19976;-77
2023/05/30 09:28:01;;;;;;;;;;;;;;;;;;4964462;28;19926;-76
2023/05/30 09:30:28;;;;;;;;;;;;;;;;;;4983073;28;19926;-77
2023/05/30 09:32:55;;;;;;;;;;;;;;;;;;4954459;28;19926;-77
2023/05/30 09:35:22;;;;;;;;;;;;;;;;;;4953727;28;19948;-77
2023/05/30 09:37:50;;;;;;;;;;;;;;;;;;4971422;28;19932;-77
2023/05/30 09:40:17;;;;;;;;;;;;;;;;;;4964424;28;19926;-77
2023/05/30 09:42:44;;;;;;;;;;;;;;;;;;4961104;28;19930;-78
2023/05/30 09:45:11;;;;;;;;;;;;;;;;;;4974361;28;19962;-75
2023/05/30 09:47:38;;;;;;;;;;;;;;;;;;4973237;28;20293;-78
2023/05/30 09:50:06;;;;;;;;;;;;;;;;;;4960514;28;19930;-77
2023/05/30 09:52:33;;;;;;;;;;;;;;;;;;4972070;28;19973;-77
2023/05/30 09:55:01;;;;;;;;;;;;;;;;;;4972291;28;19933;-78
2023/05/30 09:57:29;;;;;;;;;;;;;;;;;;4965790;28;20024;-77
2023/05/30 09:59:56;;;;;;;;;;;;;;;;;;4979073;28;19980;-78
2023/05/30 10:02:23;;;;;;;;;;;;;;;;;;4979408;28;19930;-78
2023/05/30 10:04:50;;;;;;;;;;;;;;;;;;4985311;28;19926;-77
2023/05/30 10:07:17;;;;;;;;;;;;;;;;;;4976995;28;19930;-78
2023/05/30 10:09:45;;;;;;;;;;;;;;;;;;4960833;28;19989;-75
2023/05/30 10:12:12;;;;;;;;;;;;;;;;;;4977349;28;20382;-76
2023/05/30 10:14:39;;;;;;;;;;;;;;;;;;4977378;28;19927;-77
2023/05/30 10:17:06;;;;;;;;;;;;;;;;;;4980603;28;19927;-77
2023/05/30 10:19:33;;;;;;;;;;;;;;;;;;4968106;28;20291;-78
2023/05/30 10:22:00;;;;;;;;;;;;;;;;;;4982864;28;19929;-78
2023/05/30 10:24:27;;;;;;;;;;;;;;;;;;4977547;28;20021;-75
2023/05/30 10:26:54;;;;;;;;;;;;;;;;;;4963512;28;19926;-74
2023/05/30 10:29:22;;;;;;;;;;;;;;;;;;4975276;28;19933;-75
2023/05/30 10:31:49;;;;;;;;;;;;;;;;;;4961856;28;20466;-73
2023/05/30 10:34:16;;;;;;;;;;;;;;;;;;4977157;28;19937;-74
2023/05/30 10:36:44;;;;;;;;;;;;;;;;;;4981431;28;19926;-75
2023/05/30 10:39:11;;;;;;;;;;;;;;;;;;4962984;28;19968;-75
2023/05/30 10:41:38;;;;;;;;;;;;;;;;;;4976636;28;19933;-74
2023/05/30 10:44:05;;;;;;;;;;;;;;;;;;4961665;28;19934;-75
2023/05/30 10:46:32;;;;;;;;;;;;;;;;;;4976669;28;19938;-69
2023/05/30 10:48:59;;;;;;;;;;;;;;;;;;4976530;28;19926;-72
2023/05/30 10:51:27;;;;;;;;;;;;;;;;;;4982909;28;19942;-71
2023/05/30 10:53:54;;;;;;;;;;;;;;;;;;4961161;28;19933;-71
2023/05/30 10:56:21;;;;;;;;;;;;;;;;;;4963341;28;19971;-77
2023/05/30 10:58:50;;;;;;;;;;;;;;;;;;4965888;28;19930;-76
2023/05/30 11:01:17;;;;;;;;;;;;;;;;;;4965847;28;19962;-77
2023/05/30 11:03:44;;;;;;;;;;;;;;;;;;4975745;28;19930;-76
2023/05/30 11:06:11;;;;;;;;;;;;;;;;;;4980272;28;20482;-76
2023/05/30 11:08:40;;;;;;;;;;;;;;;;;;4968477;28;19934;-74
2023/05/30 11:11:07;;;;;;;;;;;;;;;;;;4967345;28;20369;-76
2023/05/30 11:13:35;;;;;;;;;;;;;;;;;;4957058;28;19926;-77
2023/05/30 11:16:03;;;;;;;;;;;;;;;;;;4967810;28;20017;-76
2023/05/30 11:18:30;;;;;;;;;;;;;;;;;;4959962;28;19934;-74
2023/05/30 11:20:57;;;;;;;;;;;;;;;;;;4956691;28;19926;-75
2023/05/30 11:23:27;;;;;;;;;;;;;;;;;;4963671;28;19965;-76
2023/05/30 11:25:54;;;;;;;;;;;;;;;;;;4972097;28;20013;-68
2023/05/30 11:28:21;;;;;;;;;;;;;;;;;;4974664;28;19927;-74
2023/05/30 11:30:48;;;;;;;;;;;;;;;;;;4976590;28;19933;-75
2023/05/30 11:33:15;;;;;;;;;;;;;;;;;;4960366;28;19976;-74
2023/05/30 11:35:42;;;;;;;;;;;;;;;;;;4974427;28;19927;-76
2023/05/30 11:38:10;;;;;;;;;;;;;;;;;;4959711;28;19927;-75
2023/05/30 11:40:37;;;;;;;;;;;;;;;;;;4970925;28;19931;-81
2023/05/30 11:43:04;;;;;;;;;;;;;;;;;;4973525;28;19934;-77
2023/05/30 11:45:32;;;;;;;;;;;;;;;;;;4970745;28;20404;-79
2023/05/30 11:47:59;;;;;;;;;;;;;;;;;;4970934;28;20009;-75
2023/05/30 11:50:26;;;;;;;;;;;;;;;;;;4972975;28;20345;-79
2023/05/30 11:52:54;;;;;;;;;;;;;;;;;;4979796;28;19932;-78
2023/05/30 11:55:21;;;;;;;;;;;;;;;;;;4976279;28;20021;-75
2023/05/30 11:57:48;;;;;;;;;;;;;;;;;;4961191;28;19932;-76
2023/05/30 12:00:15;;;;;;;;;;;;;;;;;;4972223;28;19926;-76
2023/05/30 12:02:42;;;;;;;;;;;;;;;;;;4972806;28;20374;-78
2023/05/30 12:05:09;;;;;;;;;;;;;;;;;;4978245;28;19926;-76
2023/05/30 12:07:36;;;;;;;;;;;;;;;;;;4976861;28;19934;-78
2023/05/30 12:10:03;;;;;;;;;;;;;;;;;;4972095;28;19957;-77
2023/05/30 12:12:32;;;;;;;;;;;;;;;;;;4965145;28;20057;-79
2023/05/30 12:14:59;;;;;;;;;;;;;;;;;;4976610;28;20401;-78
2023/05/30 12:17:26;;;;;;;;;;;;;;;;;;4962664;28;19926;-76
2023/05/30 12:19:54;;;;;;;;;;;;;;;;;;4957096;28;19926;-78
2023/05/30 12:22:22;;;;;;;;;;;;;;;;;;4979643;28;19926;-78
2023/05/30 12:24:51;;;;;;;;;;;;;;;;;;4954703;28;21576;-78
2023/05/30 12:27:19;;;;;;;;;;;;;;;;;;4961377;28;19938;-77
2023/05/30 12:29:46;;;;;;;;;;;;;;;;;;4958461;28;19926;-78
2023/05/30 12:32:13;;;;;;;;;;;;;;;;;;4971476;28;19926;-78
2023/05/30 12:34:40;;;;;;;;;;;;;;;;;;4965014;28;19926;-78
2023/05/30 12:37:07;;;;;;;;;;;;;;;;;;4958064;28;19926;-76
2023/05/30 12:39:34;;;;;;;;;;;;;;;;;;4962885;28;19937;-78
2023/05/30 12:42:02;;;;;;;;;;;;;;;;;;4975373;28;20275;-78
2023/05/30 12:44:29;;;;;;;;;;;;;;;;;;4973486;28;20445;-78
2023/05/30 12:46:56;;;;;;;;;;;;;;;;;;4961471;28;19933;-77
2023/05/30 12:49:23;;;;;;;;;;;;;;;;;;4954180;28;20302;-77
2023/05/30 12:51:50;;;;;;;;;;;;;;;;;;4972745;28;19930;-77
2023/05/30 12:54:17;;;;;;;;;;;;;;;;;;4977672;28;19931;-79
2023/05/30 12:56:44;;;;;;;;;;;;;;;;;;4964420;28;19926;-77
2023/05/30 12:59:11;;;;;;;;;;;;;;;;;;4979689;28;19932;-78
2023/05/30 13:01:39;;;;;;;;;;;;;;;;;;4977874;28;20329;-78
2023/05/30 13:04:06;;;;;;;;;;;;;;;;;;4981575;28;19926;-79
2023/05/30 13:06:33;;;;;;;;;;;;;;;;;;4964054;28;19926;-76
2023/05/30 13:09:00;;;;;;;;;;;;;;;;;;4967376;28;19926;-76
2023/05/30 13:11:27;;;;;;;;;;;;;;;;;;4972019;28;19932;-76
2023/05/30 13:13:55;;;;;;;;;;;;;;;;;;4959903;28;19933;-75
2023/05/30 13:16:22;;;;;;;;;;;;;;;;;;4967116;28;20308;-75
2023/05/30 13:18:49;;;;;;;;;;;;;;;;;;4974656;28;20436;-78
2023/05/30 13:21:16;;;;;;;;;;;;;;;;;;4966541;28;19926;-76
2023/05/30 13:23:43;;;;;;;;;;;;;;;;;;4959031;28;20337;-76
2023/05/30 13:26:11;;;;;;;;;;;;;;;;;;4963124;28;19981;-77
2023/05/30 13:28:38;;;;;;;;;;;;;;;;;;4987204;28;20029;-77
2023/05/30 13:31:05;;;;;;;;;;;;;;;;;;4968762;28;19929;-76
2023/05/30 13:33:32;;;;;;;;;;;;;;;;;;4965739;28;20405;-76
2023/05/30 13:36:00;;;;;;;;;;;;;;;;;;4962499;28;19981;-76
2023/05/30 13:38:27;;;;;;;;;;;;;;;;;;4971342;28;20393;-75
2023/05/30 13:41:00;;;;;;;;;;;;;;;;;;4978724;28;19985;-79
2023/05/30 13:43:27;;;;;;;;;;;;;;;;;;4974252;28;20363;-76
2023/05/30 13:45:54;;;;;;;;;;;;;;;;;;4978137;28;19933;-76
2023/05/30 13:48:21;;;;;;;;;;;;;;;;;;4978801;28;19933;-76
2023/05/30 13:50:48;;;;;;;;;;;;;;;;;;4981218;28;20390;-76
2023/05/30 13:53:17;;;;;;;;;;;;;;;;;;4974703;28;19933;-76
2023/05/30 13:55:44;;;;;;;;;;;;;;;;;;4975310;28;19927;-76
2023/05/30 13:58:11;;;;;;;;;;;;;;;;;;4973004;28;19926;-76
2023/05/30 14:00:38;;;;;;;;;;;;;;;;;;4973884;28;19926;-75
2023/05/30 14:03:06;;;;;;;;;;;;;;;;;;4968201;28;19926;-76
2023/05/30 14:05:34;;;;;;;;;;;;;;;;;;4986200;28;20362;-76
2023/05/30 14:08:02;;;;;;;;;;;;;;;;;;4976029;28;19926;-76
2023/05/30 14:10:29;;;;;;;;;;;;;;;;;;4984025;28;20024;-75
2023/05/30 14:12:56;;;;;;;;;;;;;;;;;;4984414;28;19925;-76
2023/05/30 14:15:24;;;;;;;;;;;;;;;;;;4987028;28;20401;-76
2023/05/30 14:17:51;;;;;;;;;;;;;;;;;;4965972;28;20012;-76
2023/05/30 14:20:18;;;;;;;;;;;;;;;;;;4965444;28;19970;-77
2023/05/30 14:22:46;;;;;;;;;;;;;;;;;;4968834;28;19926;-76
2023/05/30 14:25:13;;;;;;;;;;;;;;;;;;4967071;28;20413;-77
2023/05/30 14:27:40;;;;;;;;;;;;;;;;;;4966682;28;19926;-77
2023/05/30 14:30:12;;;;;;;;;;;;;;;;;;4970685;28;19957;-76
2023/05/30 14:32:39;;;;;;;;;;;;;;;;;;4964052;28;19930;-76
2023/05/30 14:35:08;;;;;;;;;;;;;;;;;;4977605;28;20290;-74
2023/05/30 14:37:35;;;;;;;;;;;;;;;;;;4982936;28;19927;-76
2023/05/30 14:40:02;;;;;;;;;;;;;;;;;;4959666;28;19933;-76
2023/05/30 14:42:30;;;;;;;;;;;;;;;;;;4978265;28;19993;-76
2023/05/30 14:44:57;;;;;;;;;;;;;;;;;;4980379;28;19926;-76
2023/05/30 14:47:24;;;;;;;;;;;;;;;;;;4962052;28;19926;-76
2023/05/30 14:49:52;;;;;;;;;;;;;;;;;;4965191;28;19926;-76
2023/05/30 14:52:19;;;;;;;;;;;;;;;;;;4971163;28;19963;-76
2023/05/30 14:54:46;;;;;;;;;;;;;;;;;;4984028;28;20389;-74
2023/05/30 14:57:13;;;;;;;;;;;;;;;;;;4981787;28;20283;-75
2023/05/30 14:59:40;;;;;;;;;;;;;;;;;;4963337;28;20522;-76
2023/05/30 15:02:07;;;;;;;;;;;;;;;;;;4987337;28;19930;-77
2023/05/30 15:04:34;;;;;;;;;;;;;;;;;;4968653;28;19926;-75
2023/05/30 15:07:02;;;;;;;;;;;;;;;;;;4969072;28;19926;-77
2023/05/30 15:09:29;;;;;;;;;;;;;;;;;;4973234;28;19926;-76
2023/05/30 15:11:56;;;;;;;;;;;;;;;;;;4985497;28;19926;-74
2023/05/30 15:14:23;;;;;;;;;;;;;;;;;;4968403;28;19926;-75
2023/05/30 15:16:50;;;;;;;;;;;;;;;;;;4982578;28;19925;-75
2023/05/30 15:19:17;;;;;;;;;;;;;;;;;;4991496;28;20401;-76
2023/05/30 15:21:44;;;;;;;;;;;;;;;;;;4964359;28;19926;-76
2023/05/30 15:24:12;;;;;;;;;;;;;;;;;;4987259;28;19926;-76
2023/05/30 15:26:39;;;;;;;;;;;;;;;;;;4978783;28;19937;-75
2023/05/30 15:29:06;;;;;;;;;;;;;;;;;;4974568;28;20033;-75
2023/05/30 15:31:33;;;;;;;;;;;;;;;;;;4985325;28;20462;-75
2023/05/30 15:34:00;;;;;;;;;;;;;;;;;;4985038;28;19929;-75
2023/05/30 15:36:27;;;;;;;;;;;;;;;;;;4959880;28;19926;-76
2023/05/30 15:38:54;;;;;;;;;;;;;;;;;;4965097;28;19934;-76
2023/05/30 15:41:21;;;;;;;;;;;;;;;;;;4972542;28;20471;-76
2023/05/30 15:43:49;;;;;;;;;;;;;;;;;;4973118;28;19930;-76
2023/05/30 15:46:17;;;;;;;;;;;;;;;;;;4979751;28;20025;-76
2023/05/30 15:48:44;;;;;;;;;;;;;;;;;;4981830;28;19926;-75
2023/05/30 15:51:11;;;;;;;;;;;;;;;;;;4979744;28;19926;-76
2023/05/30 15:53:39;;;;;;;;;;;;;;;;;;4963552;28;19937;-77
2023/05/30 15:56:06;;;;;;;;;;;;;;;;;;4968490;28;19930;-76
2023/05/30 15:58:33;;;;;;;;;;;;;;;;;;4987858;28;19926;-76
2023/05/30 16:01:00;;;;;;;;;;;;;;;;;;4966918;28;20372;-75
2023/05/30 16:03:27;;;;;;;;;;;;;;;;;;4980379;28;19926;-75
2023/05/30 16:05:55;;;;;;;;;;;;;;;;;;4978238;28;19929;-76
2023/05/30 16:08:22;;;;;;;;;;;;;;;;;;4973517;28;19927;-75
2023/05/30 16:10:49;;;;;;;;;;;;;;;;;;4983724;28;20140;-76
2023/05/30 16:13:16;;;;;;;;;;;;;;;;;;4988145;28;19972;-76
2023/05/30 16:15:43;;;;;;;;;;;;;;;;;;4982309;28;19989;-75
2023/05/30 16:18:10;;;;;;;;;;;;;;;;;;4957661;28;19934;-76
2023/05/30 16:20:38;;;;;;;;;;;;;;;;;;4980865;28;19926;-75
2023/05/30 16:23:05;;;;;;;;;;;;;;;;;;4969899;28;19969;-75
2023/05/30 16:25:32;;;;;;;;;;;;;;;;;;4985845;28;19934;-75
2023/05/30 16:27:59;;;;;;;;;;;;;;;;;;4981471;28;19927;-75
2023/05/30 16:30:26;;;;;;;;;;;;;;;;;;4980108;28;19926;-75
2023/05/30 16:32:53;;;;;;;;;;;;;;;;;;4965249;28;19981;-75